sensor_id;sensor_type;location;lat;lon;timestamp;P1;durP1;ratioP1;P2;durP2;ratioP2
8993;SDS011;4532;50.886;4.700;2022-09-13T00:01:22;3.05;;;2.10;;
8993;SDS011;4532;50.886;4.700;2022-09-13T00:03:50;2.97;;;1.67;;
8993;SDS011;4532;50.886;4.700;2022-09-13T00:06:18;3.47;;;2.00;;
8993;SDS011;4532;50.886;4.700;2022-09-13T00:08:51;2.33;;;1.92;;
8993;SDS011;4532;50.886;4.700;2022-09-13T00:11:20;2.53;;;1.88;;
8993;SDS011;4532;50.886;4.700;2022-09-13T00:13:51;2.10;;;1.90;;
8993;SDS011;4532;50.886;4.700;2022-09-13T00:16:19;2.78;;;2.08;;
8993;SDS011;4532;50.886;4.700;2022-09-13T00:18:49;3.75;;;1.98;;
8993;SDS011;4532;50.886;4.700;2022-09-13T00:21:24;2.08;;;1.85;;
8993;SDS011;4532;50.886;4.700;2022-09-13T00:23:52;3.00;;;1.95;;
8993;SDS011;4532;50.886;4.700;2022-09-13T00:26:23;4.45;;;2.40;;
8993;SDS011;4532;50.886;4.700;2022-09-13T00:28:55;2.15;;;1.95;;
8993;SDS011;4532;50.886;4.700;2022-09-13T00:31:28;4.53;;;2.50;;
8993;SDS011;4532;50.886;4.700;2022-09-13T00:33:57;2.58;;;2.33;;
8993;SDS011;4532;50.886;4.700;2022-09-13T00:36:25;2.92;;;2.10;;
8993;SDS011;4532;50.886;4.700;2022-09-13T00:38:53;2.83;;;2.20;;
8993;SDS011;4532;50.886;4.700;2022-09-13T00:41:20;2.55;;;2.10;;
8993;SDS011;4532;50.886;4.700;2022-09-13T00:43:49;2.97;;;2.47;;
8993;SDS011;4532;50.886;4.700;2022-09-13T00:49:13;2.70;;;2.42;;
8993;SDS011;4532;50.886;4.700;2022-09-13T00:52:00;6.82;;;2.30;;
8993;SDS011;4532;50.886;4.700;2022-09-13T00:54:41;3.05;;;2.22;;
8993;SDS011;4532;50.886;4.700;2022-09-13T00:57:19;4.78;;;2.25;;
8993;SDS011;4532;50.886;4.700;2022-09-13T01:02:46;2.47;;;2.25;;
8993;SDS011;4532;50.886;4.700;2022-09-13T01:05:26;2.95;;;2.30;;
8993;SDS011;4532;50.886;4.700;2022-09-13T01:07:58;2.15;;;1.95;;
8993;SDS011;4532;50.886;4.700;2022-09-13T01:10:26;5.45;;;2.40;;
8993;SDS011;4532;50.886;4.700;2022-09-13T01:12:59;3.08;;;1.90;;
8993;SDS011;4532;50.886;4.700;2022-09-13T01:15:40;2.40;;;2.20;;
8993;SDS011;4532;50.886;4.700;2022-09-13T01:18:10;2.70;;;2.20;;
8993;SDS011;4532;50.886;4.700;2022-09-13T01:29:23;4.00;;;2.30;;
8993;SDS011;4532;50.886;4.700;2022-09-13T01:40:34;2.47;;;2.00;;
8993;SDS011;4532;50.886;4.700;2022-09-13T01:43:20;4.22;;;2.05;;
8993;SDS011;4532;50.886;4.700;2022-09-13T01:46:16;2.67;;;1.90;;
8993;SDS011;4532;50.886;4.700;2022-09-13T01:48:53;3.22;;;2.08;;
8993;SDS011;4532;50.886;4.700;2022-09-13T01:51:32;2.30;;;2.10;;
8993;SDS011;4532;50.886;4.700;2022-09-13T01:59:47;5.63;;;2.28;;
8993;SDS011;4532;50.886;4.700;2022-09-13T02:02:29;2.80;;;2.20;;
8993;SDS011;4532;50.886;4.700;2022-09-13T02:05:21;2.20;;;2.00;;
8993;SDS011;4532;50.886;4.700;2022-09-13T02:08:05;2.97;;;2.50;;
8993;SDS011;4532;50.886;4.700;2022-09-13T02:10:38;3.30;;;2.42;;
8993;SDS011;4532;50.886;4.700;2022-09-13T02:13:15;2.85;;;2.10;;
8993;SDS011;4532;50.886;4.700;2022-09-13T02:15:50;2.47;;;2.10;;
8993;SDS011;4532;50.886;4.700;2022-09-13T02:18:28;4.97;;;2.45;;
8993;SDS011;4532;50.886;4.700;2022-09-13T02:21:01;3.28;;;2.03;;
8993;SDS011;4532;50.886;4.700;2022-09-13T02:23:51;2.95;;;1.75;;
8993;SDS011;4532;50.886;4.700;2022-09-13T02:26:22;4.85;;;1.98;;
8993;SDS011;4532;50.886;4.700;2022-09-13T02:28:51;2.78;;;2.10;;
8993;SDS011;4532;50.886;4.700;2022-09-13T02:31:24;2.60;;;2.40;;
8993;SDS011;4532;50.886;4.700;2022-09-13T02:34:00;2.70;;;2.50;;
8993;SDS011;4532;50.886;4.700;2022-09-13T02:36:34;2.10;;;1.90;;
8993;SDS011;4532;50.886;4.700;2022-09-13T02:39:08;3.75;;;2.35;;
8993;SDS011;4532;50.886;4.700;2022-09-13T02:41:55;2.60;;;1.98;;
8993;SDS011;4532;50.886;4.700;2022-09-13T02:57:41;3.15;;;2.20;;
8993;SDS011;4532;50.886;4.700;2022-09-13T03:00:14;2.22;;;2.03;;
8993;SDS011;4532;50.886;4.700;2022-09-13T03:02:43;2.25;;;2.03;;
8993;SDS011;4532;50.886;4.700;2022-09-13T03:05:14;2.28;;;2.08;;
8993;SDS011;4532;50.886;4.700;2022-09-13T03:07:45;2.20;;;2.00;;
8993;SDS011;4532;50.886;4.700;2022-09-13T03:10:15;2.20;;;1.95;;
8993;SDS011;4532;50.886;4.700;2022-09-13T03:20:20;2.83;;;2.17;;
8993;SDS011;4532;50.886;4.700;2022-09-13T03:25:48;3.45;;;2.20;;
8993;SDS011;4532;50.886;4.700;2022-09-13T03:28:37;5.65;;;2.28;;
8993;SDS011;4532;50.886;4.700;2022-09-13T03:34:12;3.22;;;2.15;;
8993;SDS011;4532;50.886;4.700;2022-09-13T03:36:55;2.50;;;2.30;;
8993;SDS011;4532;50.886;4.700;2022-09-13T03:39:41;3.17;;;2.17;;
8993;SDS011;4532;50.886;4.700;2022-09-13T03:45:32;4.93;;;2.20;;
8993;SDS011;4532;50.886;4.700;2022-09-13T03:48:08;3.05;;;2.55;;
8993;SDS011;4532;50.886;4.700;2022-09-13T03:50:39;2.40;;;2.20;;
8993;SDS011;4532;50.886;4.700;2022-09-13T03:53:10;3.40;;;2.50;;
8993;SDS011;4532;50.886;4.700;2022-09-13T03:55:41;2.70;;;2.20;;
8993;SDS011;4532;50.886;4.700;2022-09-13T03:58:16;2.33;;;2.13;;
8993;SDS011;4532;50.886;4.700;2022-09-13T04:00:46;2.83;;;2.22;;
8993;SDS011;4532;50.886;4.700;2022-09-13T04:03:16;4.07;;;2.22;;
8993;SDS011;4532;50.886;4.700;2022-09-13T04:05:44;3.33;;;2.13;;
8993;SDS011;4532;50.886;4.700;2022-09-13T04:08:13;2.13;;;2.00;;
8993;SDS011;4532;50.886;4.700;2022-09-13T04:10:41;4.07;;;2.35;;
8993;SDS011;4532;50.886;4.700;2022-09-13T04:13:08;3.33;;;2.22;;
8993;SDS011;4532;50.886;4.700;2022-09-13T04:15:40;2.75;;;2.40;;
8993;SDS011;4532;50.886;4.700;2022-09-13T04:18:14;2.50;;;2.30;;
8993;SDS011;4532;50.886;4.700;2022-09-13T04:20:43;3.70;;;2.38;;
8993;SDS011;4532;50.886;4.700;2022-09-13T04:23:10;2.35;;;2.13;;
8993;SDS011;4532;50.886;4.700;2022-09-13T04:25:39;4.30;;;2.25;;
8993;SDS011;4532;50.886;4.700;2022-09-13T04:28:06;4.68;;;2.22;;
8993;SDS011;4532;50.886;4.700;2022-09-13T04:30:35;3.50;;;2.72;;
8993;SDS011;4532;50.886;4.700;2022-09-13T04:33:08;3.00;;;2.70;;
8993;SDS011;4532;50.886;4.700;2022-09-13T04:35:35;2.75;;;2.47;;
8993;SDS011;4532;50.886;4.700;2022-09-13T04:38:02;4.38;;;2.67;;
8993;SDS011;4532;50.886;4.700;2022-09-13T04:40:30;3.00;;;2.22;;
8993;SDS011;4532;50.886;4.700;2022-09-13T04:42:57;7.15;;;2.78;;
8993;SDS011;4532;50.886;4.700;2022-09-13T04:45:26;3.25;;;2.28;;
8993;SDS011;4532;50.886;4.700;2022-09-13T04:47:58;2.75;;;2.42;;
8993;SDS011;4532;50.886;4.700;2022-09-13T04:50:26;3.67;;;2.72;;
8993;SDS011;4532;50.886;4.700;2022-09-13T04:52:53;3.45;;;2.58;;
8993;SDS011;4532;50.886;4.700;2022-09-13T04:55:21;4.65;;;2.35;;
8993;SDS011;4532;50.886;4.700;2022-09-13T04:57:51;3.30;;;2.80;;
8993;SDS011;4532;50.886;4.700;2022-09-13T05:00:22;3.08;;;2.58;;
8993;SDS011;4532;50.886;4.700;2022-09-13T05:02:57;5.28;;;2.38;;
8993;SDS011;4532;50.886;4.700;2022-09-13T05:05:27;4.38;;;2.70;;
8993;SDS011;4532;50.886;4.700;2022-09-13T05:07:54;5.55;;;2.58;;
8993;SDS011;4532;50.886;4.700;2022-09-13T05:10:24;20.67;;;4.82;;
8993;SDS011;4532;50.886;4.700;2022-09-13T05:12:51;22.25;;;4.72;;
8993;SDS011;4532;50.886;4.700;2022-09-13T05:15:20;8.55;;;3.33;;
8993;SDS011;4532;50.886;4.700;2022-09-13T05:17:48;12.48;;;3.85;;
8993;SDS011;4532;50.886;4.700;2022-09-13T05:20:15;14.10;;;3.60;;
8993;SDS011;4532;50.886;4.700;2022-09-13T05:22:44;7.82;;;3.53;;
8993;SDS011;4532;50.886;4.700;2022-09-13T05:25:11;7.68;;;3.08;;
8993;SDS011;4532;50.886;4.700;2022-09-13T05:27:42;4.68;;;2.85;;
8993;SDS011;4532;50.886;4.700;2022-09-13T05:30:11;16.02;;;3.80;;
8993;SDS011;4532;50.886;4.700;2022-09-13T05:32:39;11.80;;;3.67;;
8993;SDS011;4532;50.886;4.700;2022-09-13T05:35:11;12.90;;;3.90;;
8993;SDS011;4532;50.886;4.700;2022-09-13T05:37:39;10.02;;;3.95;;
8993;SDS011;4532;50.886;4.700;2022-09-13T05:40:06;10.70;;;2.95;;
8993;SDS011;4532;50.886;4.700;2022-09-13T05:42:39;5.95;;;3.38;;
8993;SDS011;4532;50.886;4.700;2022-09-13T05:45:09;6.70;;;3.35;;
8993;SDS011;4532;50.886;4.700;2022-09-13T05:47:36;5.03;;;2.95;;
8993;SDS011;4532;50.886;4.700;2022-09-13T05:50:06;8.25;;;3.47;;
8993;SDS011;4532;50.886;4.700;2022-09-13T05:52:46;6.25;;;3.05;;
8993;SDS011;4532;50.886;4.700;2022-09-13T05:55:20;9.23;;;3.17;;
8993;SDS011;4532;50.886;4.700;2022-09-13T05:57:50;8.45;;;3.20;;
8993;SDS011;4532;50.886;4.700;2022-09-13T06:00:20;12.70;;;3.05;;
8993;SDS011;4532;50.886;4.700;2022-09-13T06:02:47;8.13;;;3.22;;
8993;SDS011;4532;50.886;4.700;2022-09-13T06:05:15;11.32;;;3.22;;
8993;SDS011;4532;50.886;4.700;2022-09-13T06:07:42;21.08;;;4.85;;
8993;SDS011;4532;50.886;4.700;2022-09-13T06:10:09;19.30;;;4.97;;
8993;SDS011;4532;50.886;4.700;2022-09-13T06:12:37;22.80;;;4.85;;
8993;SDS011;4532;50.886;4.700;2022-09-13T06:15:07;21.17;;;5.85;;
8993;SDS011;4532;50.886;4.700;2022-09-13T06:17:39;13.88;;;4.07;;
8993;SDS011;4532;50.886;4.700;2022-09-13T06:20:07;12.60;;;3.90;;
8993;SDS011;4532;50.886;4.700;2022-09-13T06:22:37;10.70;;;3.72;;
8993;SDS011;4532;50.886;4.700;2022-09-13T06:25:07;7.47;;;3.85;;
8993;SDS011;4532;50.886;4.700;2022-09-13T06:27:35;12.52;;;3.65;;
8993;SDS011;4532;50.886;4.700;2022-09-13T06:30:02;10.52;;;3.63;;
8993;SDS011;4532;50.886;4.700;2022-09-13T06:32:29;7.65;;;3.65;;
8993;SDS011;4532;50.886;4.700;2022-09-13T06:34:59;7.28;;;3.42;;
8993;SDS011;4532;50.886;4.700;2022-09-13T06:37:28;8.75;;;3.63;;
8993;SDS011;4532;50.886;4.700;2022-09-13T06:39:56;4.53;;;2.97;;
8993;SDS011;4532;50.886;4.700;2022-09-13T06:42:32;6.50;;;3.20;;
8993;SDS011;4532;50.886;4.700;2022-09-13T06:45:03;6.60;;;3.10;;
8993;SDS011;4532;50.886;4.700;2022-09-13T06:47:30;8.93;;;3.40;;
8993;SDS011;4532;50.886;4.700;2022-09-13T06:50:00;10.35;;;3.33;;
8993;SDS011;4532;50.886;4.700;2022-09-13T06:52:30;7.93;;;3.72;;
8993;SDS011;4532;50.886;4.700;2022-09-13T06:54:59;7.15;;;3.40;;
8993;SDS011;4532;50.886;4.700;2022-09-13T06:57:29;6.63;;;3.15;;
8993;SDS011;4532;50.886;4.700;2022-09-13T06:59:59;9.68;;;3.10;;
8993;SDS011;4532;50.886;4.700;2022-09-13T07:02:27;9.55;;;3.15;;
8993;SDS011;4532;50.886;4.700;2022-09-13T07:04:56;7.00;;;3.20;;
8993;SDS011;4532;50.886;4.700;2022-09-13T07:07:24;5.55;;;3.20;;
8993;SDS011;4532;50.886;4.700;2022-09-13T07:09:51;10.77;;;3.55;;
8993;SDS011;4532;50.886;4.700;2022-09-13T07:12:26;6.60;;;2.95;;
8993;SDS011;4532;50.886;4.700;2022-09-13T07:14:53;5.25;;;3.10;;
8993;SDS011;4532;50.886;4.700;2022-09-13T07:17:26;4.13;;;2.88;;
8993;SDS011;4532;50.886;4.700;2022-09-13T07:19:58;5.75;;;2.85;;
8993;SDS011;4532;50.886;4.700;2022-09-13T07:22:28;7.55;;;3.65;;
8993;SDS011;4532;50.886;4.700;2022-09-13T07:24:57;5.20;;;2.97;;
8993;SDS011;4532;50.886;4.700;2022-09-13T07:27:27;5.55;;;3.20;;
8993;SDS011;4532;50.886;4.700;2022-09-13T07:29:57;7.90;;;3.30;;
8993;SDS011;4532;50.886;4.700;2022-09-13T07:32:29;15.38;;;3.78;;
8993;SDS011;4532;50.886;4.700;2022-09-13T07:34:58;9.80;;;4.13;;
8993;SDS011;4532;50.886;4.700;2022-09-13T07:37:25;9.63;;;4.05;;
8993;SDS011;4532;50.886;4.700;2022-09-13T07:39:55;8.60;;;3.35;;
8993;SDS011;4532;50.886;4.700;2022-09-13T07:42:22;11.05;;;3.15;;
8993;SDS011;4532;50.886;4.700;2022-09-13T07:44:49;5.00;;;3.08;;
8993;SDS011;4532;50.886;4.700;2022-09-13T07:47:17;5.93;;;3.00;;
8993;SDS011;4532;50.886;4.700;2022-09-13T07:49:45;7.93;;;3.92;;
8993;SDS011;4532;50.886;4.700;2022-09-13T07:52:15;9.70;;;3.63;;
8993;SDS011;4532;50.886;4.700;2022-09-13T07:54:42;6.25;;;3.20;;
8993;SDS011;4532;50.886;4.700;2022-09-13T07:57:12;8.02;;;3.60;;
8993;SDS011;4532;50.886;4.700;2022-09-13T07:59:44;10.75;;;3.63;;
8993;SDS011;4532;50.886;4.700;2022-09-13T08:02:16;10.13;;;3.47;;
8993;SDS011;4532;50.886;4.700;2022-09-13T08:04:46;8.88;;;4.10;;
8993;SDS011;4532;50.886;4.700;2022-09-13T08:07:15;8.65;;;3.70;;
8993;SDS011;4532;50.886;4.700;2022-09-13T08:09:43;9.88;;;3.60;;
8993;SDS011;4532;50.886;4.700;2022-09-13T08:12:12;8.23;;;3.40;;
8993;SDS011;4532;50.886;4.700;2022-09-13T08:14:39;6.70;;;4.05;;
8993;SDS011;4532;50.886;4.700;2022-09-13T08:17:07;4.50;;;3.03;;
8993;SDS011;4532;50.886;4.700;2022-09-13T08:19:36;6.47;;;3.13;;
8993;SDS011;4532;50.886;4.700;2022-09-13T08:22:03;4.97;;;2.60;;
8993;SDS011;4532;50.886;4.700;2022-09-13T08:24:31;4.68;;;2.97;;
8993;SDS011;4532;50.886;4.700;2022-09-13T08:27:00;4.78;;;2.42;;
8993;SDS011;4532;50.886;4.700;2022-09-13T08:29:29;6.50;;;3.50;;
8993;SDS011;4532;50.886;4.700;2022-09-13T08:31:59;6.22;;;3.40;;
8993;SDS011;4532;50.886;4.700;2022-09-13T08:34:29;5.28;;;3.15;;
8993;SDS011;4532;50.886;4.700;2022-09-13T08:36:58;4.80;;;2.85;;
8993;SDS011;4532;50.886;4.700;2022-09-13T08:39:31;5.43;;;3.33;;
8993;SDS011;4532;50.886;4.700;2022-09-13T08:44:55;4.22;;;3.10;;
8993;SDS011;4532;50.886;4.700;2022-09-13T09:01:32;7.28;;;3.70;;
8993;SDS011;4532;50.886;4.700;2022-09-13T09:07:12;4.45;;;2.95;;
8993;SDS011;4532;50.886;4.700;2022-09-13T09:17:57;5.97;;;3.67;;
8993;SDS011;4532;50.886;4.700;2022-09-13T09:23:04;7.55;;;3.58;;
8993;SDS011;4532;50.886;4.700;2022-09-13T09:25:47;5.05;;;3.30;;
8993;SDS011;4532;50.886;4.700;2022-09-13T09:28:21;4.85;;;3.15;;
8993;SDS011;4532;50.886;4.700;2022-09-13T09:30:53;5.75;;;3.35;;
8993;SDS011;4532;50.886;4.700;2022-09-13T09:33:40;5.68;;;3.50;;
8993;SDS011;4532;50.886;4.700;2022-09-13T09:36:23;6.38;;;3.67;;
8993;SDS011;4532;50.886;4.700;2022-09-13T09:39:02;5.63;;;3.53;;
8993;SDS011;4532;50.886;4.700;2022-09-13T09:41:35;7.35;;;3.75;;
8993;SDS011;4532;50.886;4.700;2022-09-13T09:44:17;6.93;;;3.45;;
8993;SDS011;4532;50.886;4.700;2022-09-13T09:47:00;7.65;;;3.90;;
8993;SDS011;4532;50.886;4.700;2022-09-13T09:52:35;4.40;;;2.90;;
8993;SDS011;4532;50.886;4.700;2022-09-13T09:55:26;9.60;;;3.28;;
8993;SDS011;4532;50.886;4.700;2022-09-13T09:58:05;5.00;;;3.20;;
8993;SDS011;4532;50.886;4.700;2022-09-13T10:00:35;5.65;;;3.28;;
8993;SDS011;4532;50.886;4.700;2022-09-13T10:03:13;5.53;;;3.15;;
8993;SDS011;4532;50.886;4.700;2022-09-13T10:05:46;7.00;;;3.13;;
8993;SDS011;4532;50.886;4.700;2022-09-13T10:08:27;3.42;;;2.65;;
8993;SDS011;4532;50.886;4.700;2022-09-13T10:10:57;4.13;;;2.65;;
8993;SDS011;4532;50.886;4.700;2022-09-13T10:13:30;5.40;;;2.85;;
8993;SDS011;4532;50.886;4.700;2022-09-13T10:18:28;5.47;;;3.20;;
8993;SDS011;4532;50.886;4.700;2022-09-13T10:23:48;3.97;;;2.60;;
8993;SDS011;4532;50.886;4.700;2022-09-13T10:26:25;4.57;;;2.60;;
8993;SDS011;4532;50.886;4.700;2022-09-13T10:28:55;4.20;;;3.15;;
8993;SDS011;4532;50.886;4.700;2022-09-13T10:31:36;5.90;;;2.83;;
8993;SDS011;4532;50.886;4.700;2022-09-13T10:34:12;6.55;;;2.80;;
8993;SDS011;4532;50.886;4.700;2022-09-13T10:37:15;5.53;;;2.78;;
8993;SDS011;4532;50.886;4.700;2022-09-13T10:42:27;8.77;;;2.67;;
8993;SDS011;4532;50.886;4.700;2022-09-13T10:45:18;5.70;;;2.92;;
8993;SDS011;4532;50.886;4.700;2022-09-13T10:47:54;4.57;;;2.72;;
8993;SDS011;4532;50.886;4.700;2022-09-13T10:50:30;2.60;;;2.17;;
8993;SDS011;4532;50.886;4.700;2022-09-13T10:52:59;3.92;;;2.88;;
8993;SDS011;4532;50.886;4.700;2022-09-13T10:55:34;6.82;;;2.80;;
8993;SDS011;4532;50.886;4.700;2022-09-13T11:03:29;4.93;;;2.58;;
8993;SDS011;4532;50.886;4.700;2022-09-13T11:06:20;4.85;;;2.58;;
8993;SDS011;4532;50.886;4.700;2022-09-13T11:08:55;4.00;;;2.42;;
8993;SDS011;4532;50.886;4.700;2022-09-13T11:16:54;5.22;;;2.60;;
8993;SDS011;4532;50.886;4.700;2022-09-13T11:30:31;7.10;;;3.10;;
8993;SDS011;4532;50.886;4.700;2022-09-13T11:36:09;3.17;;;2.10;;
8993;SDS011;4532;50.886;4.700;2022-09-13T11:38:44;5.68;;;2.20;;
8993;SDS011;4532;50.886;4.700;2022-09-13T11:41:31;7.05;;;2.45;;
8993;SDS011;4532;50.886;4.700;2022-09-13T11:55:45;5.25;;;2.22;;
8993;SDS011;4532;50.886;4.700;2022-09-13T11:58:37;7.97;;;2.30;;
8993;SDS011;4532;50.886;4.700;2022-09-13T12:01:17;3.08;;;2.20;;
8993;SDS011;4532;50.886;4.700;2022-09-13T12:04:08;2.10;;;1.70;;
8993;SDS011;4532;50.886;4.700;2022-09-13T12:06:42;3.55;;;1.73;;
8993;SDS011;4532;50.886;4.700;2022-09-13T12:12:13;3.42;;;1.77;;
8993;SDS011;4532;50.886;4.700;2022-09-13T12:14:49;6.95;;;1.80;;
8993;SDS011;4532;50.886;4.700;2022-09-13T12:17:29;2.20;;;1.70;;
8993;SDS011;4532;50.886;4.700;2022-09-13T12:20:33;4.30;;;2.20;;
8993;SDS011;4532;50.886;4.700;2022-09-13T12:23:04;3.05;;;2.03;;
8993;SDS011;4532;50.886;4.700;2022-09-13T12:25:40;3.22;;;2.00;;
8993;SDS011;4532;50.886;4.700;2022-09-13T12:28:25;4.18;;;2.30;;
8993;SDS011;4532;50.886;4.700;2022-09-13T12:31:01;2.42;;;2.22;;
8993;SDS011;4532;50.886;4.700;2022-09-13T12:33:32;5.35;;;2.20;;
8993;SDS011;4532;50.886;4.700;2022-09-13T12:55:47;2.13;;;1.88;;
8993;SDS011;4532;50.886;4.700;2022-09-13T12:58:27;5.10;;;2.40;;
8993;SDS011;4532;50.886;4.700;2022-09-13T13:01:20;2.97;;;2.35;;
8993;SDS011;4532;50.886;4.700;2022-09-13T13:03:52;4.35;;;2.17;;
8993;SDS011;4532;50.886;4.700;2022-09-13T13:09:04;4.63;;;2.35;;
8993;SDS011;4532;50.886;4.700;2022-09-13T13:11:54;5.65;;;2.33;;
8993;SDS011;4532;50.886;4.700;2022-09-13T13:14:25;4.47;;;2.45;;
8993;SDS011;4532;50.886;4.700;2022-09-13T13:39:08;4.50;;;2.88;;
8993;SDS011;4532;50.886;4.700;2022-09-13T13:57:30;8.55;;;3.65;;
8993;SDS011;4532;50.886;4.700;2022-09-13T14:00:12;10.95;;;4.38;;
8993;SDS011;4532;50.886;4.700;2022-09-13T14:05:27;8.13;;;3.10;;
8993;SDS011;4532;50.886;4.700;2022-09-13T14:08:31;4.82;;;3.25;;
8993;SDS011;4532;50.886;4.700;2022-09-13T14:19:37;15.77;;;5.78;;
8993;SDS011;4532;50.886;4.700;2022-09-13T14:24:49;14.15;;;4.85;;
8993;SDS011;4532;50.886;4.700;2022-09-13T14:27:28;7.35;;;3.70;;
8993;SDS011;4532;50.886;4.700;2022-09-13T14:30:00;9.20;;;3.90;;
8993;SDS011;4532;50.886;4.700;2022-09-13T14:32:31;7.90;;;3.70;;
8993;SDS011;4532;50.886;4.700;2022-09-13T14:38:12;4.45;;;3.10;;
8993;SDS011;4532;50.886;4.700;2022-09-13T14:40:52;7.82;;;3.42;;
8993;SDS011;4532;50.886;4.700;2022-09-13T14:43:24;9.73;;;4.18;;
8993;SDS011;4532;50.886;4.700;2022-09-13T14:46:39;11.27;;;3.55;;
8993;SDS011;4532;50.886;4.700;2022-09-13T14:52:25;11.50;;;3.85;;
8993;SDS011;4532;50.886;4.700;2022-09-13T14:57:17;7.32;;;3.30;;
8993;SDS011;4532;50.886;4.700;2022-09-13T14:59:53;10.00;;;3.45;;
8993;SDS011;4532;50.886;4.700;2022-09-13T15:02:30;7.20;;;3.13;;
8993;SDS011;4532;50.886;4.700;2022-09-13T15:05:03;7.90;;;3.55;;
8993;SDS011;4532;50.886;4.700;2022-09-13T15:07:39;6.55;;;3.00;;
8993;SDS011;4532;50.886;4.700;2022-09-13T15:10:31;3.92;;;3.08;;
8993;SDS011;4532;50.886;4.700;2022-09-13T15:20:48;7.60;;;3.35;;
8993;SDS011;4532;50.886;4.700;2022-09-13T15:23:27;4.78;;;3.10;;
8993;SDS011;4532;50.886;4.700;2022-09-13T15:26:06;4.15;;;3.47;;
8993;SDS011;4532;50.886;4.700;2022-09-13T15:31:18;4.50;;;3.42;;
8993;SDS011;4532;50.886;4.700;2022-09-13T15:37:12;4.75;;;3.53;;
8993;SDS011;4532;50.886;4.700;2022-09-13T15:39:41;6.07;;;3.75;;
8993;SDS011;4532;50.886;4.700;2022-09-13T15:42:10;7.53;;;4.65;;
8993;SDS011;4532;50.886;4.700;2022-09-13T15:44:38;5.82;;;3.72;;
8993;SDS011;4532;50.886;4.700;2022-09-13T15:47:12;4.35;;;3.75;;
8993;SDS011;4532;50.886;4.700;2022-09-13T15:49:47;4.57;;;3.70;;
8993;SDS011;4532;50.886;4.700;2022-09-13T15:52:17;5.50;;;4.28;;
8993;SDS011;4532;50.886;4.700;2022-09-13T15:54:49;5.40;;;4.63;;
8993;SDS011;4532;50.886;4.700;2022-09-13T15:57:23;4.88;;;4.15;;
8993;SDS011;4532;50.886;4.700;2022-09-13T15:59:52;5.97;;;4.07;;
8993;SDS011;4532;50.886;4.700;2022-09-13T16:02:25;7.00;;;4.40;;
8993;SDS011;4532;50.886;4.700;2022-09-13T16:04:54;7.88;;;4.45;;
8993;SDS011;4532;50.886;4.700;2022-09-13T16:07:22;5.55;;;4.35;;
8993;SDS011;4532;50.886;4.700;2022-09-13T16:09:53;5.32;;;4.60;;
8993;SDS011;4532;50.886;4.700;2022-09-13T16:12:22;7.65;;;4.50;;
8993;SDS011;4532;50.886;4.700;2022-09-13T16:14:54;8.30;;;4.80;;
8993;SDS011;4532;50.886;4.700;2022-09-13T16:17:25;6.18;;;4.35;;
8993;SDS011;4532;50.886;4.700;2022-09-13T16:19:55;7.82;;;4.22;;
8993;SDS011;4532;50.886;4.700;2022-09-13T16:22:22;4.53;;;4.00;;
8993;SDS011;4532;50.886;4.700;2022-09-13T16:24:54;5.80;;;3.83;;
8993;SDS011;4532;50.886;4.700;2022-09-13T16:27:21;4.95;;;4.07;;
8993;SDS011;4532;50.886;4.700;2022-09-13T16:29:58;9.75;;;4.05;;
8993;SDS011;4532;50.886;4.700;2022-09-13T16:32:28;5.85;;;3.72;;
8993;SDS011;4532;50.886;4.700;2022-09-13T16:34:55;5.03;;;3.90;;
8993;SDS011;4532;50.886;4.700;2022-09-13T16:37:23;5.25;;;3.58;;
8993;SDS011;4532;50.886;4.700;2022-09-13T16:39:54;5.50;;;3.47;;
8993;SDS011;4532;50.886;4.700;2022-09-13T16:42:22;5.97;;;3.80;;
8993;SDS011;4532;50.886;4.700;2022-09-13T16:44:50;7.43;;;3.72;;
8993;SDS011;4532;50.886;4.700;2022-09-13T16:47:18;3.78;;;3.30;;
8993;SDS011;4532;50.886;4.700;2022-09-13T16:49:47;3.97;;;3.08;;
8993;SDS011;4532;50.886;4.700;2022-09-13T16:52:17;7.53;;;3.20;;
8993;SDS011;4532;50.886;4.700;2022-09-13T16:54:46;4.25;;;3.08;;
8993;SDS011;4532;50.886;4.700;2022-09-13T16:57:17;3.88;;;3.38;;
8993;SDS011;4532;50.886;4.700;2022-09-13T16:59:45;4.05;;;3.42;;
8993;SDS011;4532;50.886;4.700;2022-09-13T17:02:13;6.07;;;3.70;;
8993;SDS011;4532;50.886;4.700;2022-09-13T17:04:41;8.40;;;4.03;;
8993;SDS011;4532;50.886;4.700;2022-09-13T17:07:13;5.03;;;3.72;;
8993;SDS011;4532;50.886;4.700;2022-09-13T17:09:43;5.45;;;3.90;;
8993;SDS011;4532;50.886;4.700;2022-09-13T17:12:13;5.90;;;3.80;;
8993;SDS011;4532;50.886;4.700;2022-09-13T17:14:40;6.65;;;3.45;;
8993;SDS011;4532;50.886;4.700;2022-09-13T17:17:12;4.75;;;3.58;;
8993;SDS011;4532;50.886;4.700;2022-09-13T17:19:41;5.03;;;3.33;;
8993;SDS011;4532;50.886;4.700;2022-09-13T17:22:10;6.35;;;3.95;;
8993;SDS011;4532;50.886;4.700;2022-09-13T17:24:39;6.22;;;3.05;;
8993;SDS011;4532;50.886;4.700;2022-09-13T17:27:07;4.20;;;3.17;;
8993;SDS011;4532;50.886;4.700;2022-09-13T17:29:37;3.75;;;2.97;;
8993;SDS011;4532;50.886;4.700;2022-09-13T17:32:06;4.22;;;2.97;;
8993;SDS011;4532;50.886;4.700;2022-09-13T17:34:35;4.20;;;2.97;;
8993;SDS011;4532;50.886;4.700;2022-09-13T17:37:05;4.55;;;3.28;;
8993;SDS011;4532;50.886;4.700;2022-09-13T17:39:32;3.33;;;2.88;;
8993;SDS011;4532;50.886;4.700;2022-09-13T17:42:00;4.90;;;3.38;;
8993;SDS011;4532;50.886;4.700;2022-09-13T17:44:29;4.75;;;2.90;;
8993;SDS011;4532;50.886;4.700;2022-09-13T17:46:56;5.40;;;3.55;;
8993;SDS011;4532;50.886;4.700;2022-09-13T17:49:24;8.05;;;3.92;;
8993;SDS011;4532;50.886;4.700;2022-09-13T17:51:51;4.13;;;3.58;;
8993;SDS011;4532;50.886;4.700;2022-09-13T17:54:18;4.15;;;3.03;;
8993;SDS011;4532;50.886;4.700;2022-09-13T17:56:45;4.55;;;3.30;;
8993;SDS011;4532;50.886;4.700;2022-09-13T17:59:15;4.70;;;3.40;;
8993;SDS011;4532;50.886;4.700;2022-09-13T18:01:49;4.63;;;3.60;;
8993;SDS011;4532;50.886;4.700;2022-09-13T18:04:22;5.38;;;3.70;;
8993;SDS011;4532;50.886;4.700;2022-09-13T18:06:50;3.95;;;3.55;;
8993;SDS011;4532;50.886;4.700;2022-09-13T18:09:18;5.55;;;3.90;;
8993;SDS011;4532;50.886;4.700;2022-09-13T18:11:45;4.95;;;3.78;;
8993;SDS011;4532;50.886;4.700;2022-09-13T18:14:15;4.18;;;3.22;;
8993;SDS011;4532;50.886;4.700;2022-09-13T18:16:43;5.68;;;3.30;;
8993;SDS011;4532;50.886;4.700;2022-09-13T18:19:17;3.97;;;3.47;;
8993;SDS011;4532;50.886;4.700;2022-09-13T18:22:05;5.28;;;3.67;;
8993;SDS011;4532;50.886;4.700;2022-09-13T18:24:33;3.97;;;3.10;;
8993;SDS011;4532;50.886;4.700;2022-09-13T18:27:04;5.88;;;3.65;;
8993;SDS011;4532;50.886;4.700;2022-09-13T18:29:31;3.33;;;3.03;;
8993;SDS011;4532;50.886;4.700;2022-09-13T18:31:58;5.05;;;2.90;;
8993;SDS011;4532;50.886;4.700;2022-09-13T18:34:25;3.10;;;2.80;;
8993;SDS011;4532;50.886;4.700;2022-09-13T18:36:58;6.07;;;3.40;;
8993;SDS011;4532;50.886;4.700;2022-09-13T18:39:27;3.55;;;3.08;;
8993;SDS011;4532;50.886;4.700;2022-09-13T18:41:55;4.75;;;3.45;;
8993;SDS011;4532;50.886;4.700;2022-09-13T18:44:22;4.38;;;3.60;;
8993;SDS011;4532;50.886;4.700;2022-09-13T18:46:49;4.15;;;3.58;;
8993;SDS011;4532;50.886;4.700;2022-09-13T18:49:18;3.92;;;3.35;;
8993;SDS011;4532;50.886;4.700;2022-09-13T18:51:52;5.82;;;4.40;;
8993;SDS011;4532;50.886;4.700;2022-09-13T18:54:22;4.53;;;4.13;;
8993;SDS011;4532;50.886;4.700;2022-09-13T18:56:51;4.88;;;4.15;;
8993;SDS011;4532;50.886;4.700;2022-09-13T18:59:20;4.47;;;3.65;;
8993;SDS011;4532;50.886;4.700;2022-09-13T19:01:48;4.90;;;3.78;;
8993;SDS011;4532;50.886;4.700;2022-09-13T19:04:22;4.47;;;3.63;;
8993;SDS011;4532;50.886;4.700;2022-09-13T19:06:52;4.53;;;3.78;;
8993;SDS011;4532;50.886;4.700;2022-09-13T19:09:23;3.75;;;3.42;;
8993;SDS011;4532;50.886;4.700;2022-09-13T19:11:51;4.75;;;4.35;;
8993;SDS011;4532;50.886;4.700;2022-09-13T19:14:20;4.45;;;4.05;;
8993;SDS011;4532;50.886;4.700;2022-09-13T19:16:53;4.78;;;3.78;;
8993;SDS011;4532;50.886;4.700;2022-09-13T19:19:24;4.82;;;4.30;;
8993;SDS011;4532;50.886;4.700;2022-09-13T19:21:51;4.70;;;3.67;;
8993;SDS011;4532;50.886;4.700;2022-09-13T19:24:21;4.85;;;4.18;;
8993;SDS011;4532;50.886;4.700;2022-09-13T19:26:49;4.28;;;3.88;;
8993;SDS011;4532;50.886;4.700;2022-09-13T19:29:18;5.47;;;4.15;;
8993;SDS011;4532;50.886;4.700;2022-09-13T19:31:51;6.88;;;4.90;;
8993;SDS011;4532;50.886;4.700;2022-09-13T19:34:19;5.93;;;4.60;;
8993;SDS011;4532;50.886;4.700;2022-09-13T19:36:47;6.55;;;4.78;;
8993;SDS011;4532;50.886;4.700;2022-09-13T19:39:23;5.82;;;4.90;;
8993;SDS011;4532;50.886;4.700;2022-09-13T19:41:55;7.05;;;4.95;;
8993;SDS011;4532;50.886;4.700;2022-09-13T19:44:22;5.97;;;5.00;;